createdAt,value
2022-08-07T00:00:03.443Z,66.45
2022-08-07T00:01:44.394Z,66.77
2022-08-07T00:02:40.588Z,66.61
2022-08-07T00:03:47.302Z,66.59
2022-08-07T00:04:49.432Z,66.44
2022-08-07T00:05:53.176Z,66.38
2022-08-07T00:06:55.628Z,66.31
2022-08-07T00:08:03.094Z,66.25
2022-08-07T00:09:16.098Z,66.20
2022-08-07T00:10:26.066Z,66.18
2022-08-07T00:11:30.076Z,66.14
2022-08-07T00:12:34.931Z,66.16
2022-08-07T00:13:46.228Z,66.29
2022-08-07T00:14:48.193Z,66.47
2022-08-07T00:15:51.801Z,66.37
2022-08-07T00:16:53.585Z,66.44
2022-08-07T00:17:55.189Z,66.51
2022-08-07T00:18:56.849Z,66.41
2022-08-07T00:20:02.753Z,66.51
2022-08-07T00:21:08.236Z,66.57
2022-08-07T00:22:35.358Z,66.66
2022-08-07T00:23:39.642Z,66.46
2022-08-07T00:24:43.164Z,66.34
2022-08-07T00:25:58.130Z,66.40
2022-08-07T00:27:07.310Z,66.40
2022-08-07T00:28:10.835Z,66.73
2022-08-07T00:29:12.433Z,66.76
2022-08-07T00:30:26.433Z,66.79
2022-08-07T00:31:37.897Z,66.80
2022-08-07T00:32:43.237Z,66.91
2022-08-07T00:33:47.701Z,66.90
2022-08-07T00:34:50.685Z,67.02
2022-08-07T00:35:53.783Z,66.95
2022-08-07T00:36:55.456Z,67.10
2022-08-07T00:37:57.889Z,67.27
2022-08-07T00:38:59.536Z,67.16
2022-08-07T00:40:02.059Z,67.11
2022-08-07T00:41:04.837Z,66.89
2022-08-07T00:42:11.765Z,66.95
2022-08-07T00:44:01.181Z,67.38
2022-08-07T00:44:41.250Z,67.39
2022-08-07T00:45:46.438Z,67.26
2022-08-07T00:46:48.271Z,67.24
2022-08-07T00:48:05.429Z,67.33
2022-08-07T00:49:10.423Z,67.23
2022-08-07T00:50:50.887Z,67.40
2022-08-07T00:51:56.582Z,67.63
2022-08-07T00:52:59.588Z,67.62
2022-08-07T00:54:01.897Z,67.52
2022-08-07T00:55:05.002Z,67.39
2022-08-07T00:56:14.080Z,67.39
2022-08-07T00:57:16.966Z,67.54
2022-08-07T00:58:19.553Z,67.48
2022-08-07T00:59:35.193Z,67.39
2022-08-07T01:00:37.280Z,67.18
2022-08-07T01:01:43.980Z,67.28
2022-08-07T01:02:46.535Z,67.16
2022-08-07T01:03:55.708Z,67.09
2022-08-07T01:05:01.373Z,67.10
2022-08-07T01:06:04.002Z,67.16
2022-08-07T01:07:05.917Z,67.12
2022-08-07T01:08:09.763Z,67.14
2022-08-07T01:10:04.013Z,67.03
2022-08-07T01:10:34.975Z,66.96
2022-08-07T01:12:24.006Z,66.76
2022-08-07T01:12:58.265Z,66.69
2022-08-07T01:14:00.592Z,66.72
2022-08-07T01:15:04.074Z,66.88
2022-08-07T01:16:06.996Z,66.77
2022-08-07T01:17:09.970Z,66.57
2022-08-07T01:18:17.772Z,66.50
2022-08-07T01:19:20.389Z,66.75
2022-08-07T01:20:22.873Z,66.87
2022-08-07T01:21:32.605Z,66.96
2022-08-07T01:22:46.807Z,66.95
2022-08-07T01:23:55.931Z,66.81
2022-08-07T01:24:58.243Z,66.96
2022-08-07T01:26:00.446Z,66.90
2022-08-07T01:27:02.534Z,66.84
2022-08-07T01:28:04.466Z,66.71
2022-08-07T01:29:06.099Z,66.67
2022-08-07T01:30:10.835Z,66.70
2022-08-07T01:31:15.271Z,66.71
2022-08-07T01:32:18.419Z,66.74
2022-08-07T01:33:20.262Z,66.83
2022-08-07T01:34:30.884Z,67.18
2022-08-07T01:35:53.783Z,67.11
2022-08-07T01:36:58.299Z,67.09
2022-08-07T01:38:00.101Z,67.04
2022-08-07T01:39:01.901Z,67.07
2022-08-07T01:40:14.962Z,67.00
2022-08-07T01:41:26.093Z,66.95
2022-08-07T01:42:39.947Z,66.82
2022-08-07T01:43:50.363Z,66.75
2022-08-07T01:44:52.580Z,66.88
2022-08-07T01:45:55.231Z,66.89
2022-08-07T01:47:01.202Z,66.68
2022-08-07T01:48:30.192Z,66.65
2022-08-07T01:49:32.884Z,66.85
2022-08-07T01:50:36.655Z,66.91
2022-08-07T01:52:02.206Z,66.79
2022-08-07T01:53:00.470Z,66.82
2022-08-07T01:54:12.141Z,66.81
2022-08-07T01:55:24.186Z,66.71
2022-08-07T01:56:30.290Z,66.75
2022-08-07T01:58:05.602Z,66.86
2022-08-07T01:59:06.546Z,66.73
2022-08-07T02:00:13.378Z,66.70
2022-08-07T02:01:25.335Z,67.00
2022-08-07T02:03:19.465Z,67.01
2022-08-07T02:04:12.137Z,67.00
2022-08-07T02:05:48.267Z,66.86
2022-08-07T02:06:39.340Z,66.88
2022-08-07T02:07:50.561Z,66.97
2022-08-07T02:08:54.307Z,67.10
2022-08-07T02:09:58.470Z,67.01
2022-08-07T02:11:00.438Z,66.95
2022-08-07T02:12:17.780Z,66.82
2022-08-07T02:13:23.669Z,66.84
2022-08-07T02:14:47.088Z,66.99
2022-08-07T02:15:53.050Z,66.86
2022-08-07T02:16:54.861Z,66.72
2022-08-07T02:17:56.815Z,66.73
2022-08-07T02:18:58.412Z,66.82
2022-08-07T02:20:06.688Z,66.70
2022-08-07T02:21:16.188Z,66.61
2022-08-07T02:22:21.140Z,66.74
2022-08-07T02:23:27.764Z,66.91
2022-08-07T02:24:29.940Z,66.87
2022-08-07T02:26:31.116Z,67.00
2022-08-07T02:26:56.052Z,67.18
2022-08-07T02:28:01.816Z,67.32
2022-08-07T02:29:13.631Z,67.20
2022-08-07T02:30:15.741Z,67.11
2022-08-07T02:31:28.565Z,66.97
2022-08-07T02:32:30.539Z,67.06
2022-08-07T02:34:01.413Z,66.86
2022-08-07T02:34:54.937Z,67.10
2022-08-07T02:36:30.672Z,67.19
2022-08-07T02:37:21.166Z,67.41
2022-08-07T02:38:28.209Z,67.43
2022-08-07T02:39:42.872Z,67.39
2022-08-07T02:40:56.248Z,67.51
2022-08-07T02:41:58.412Z,67.47
2022-08-07T02:43:01.150Z,67.41
2022-08-07T02:44:09.470Z,67.61
2022-08-07T02:45:57.436Z,67.43
2022-08-07T02:46:36.766Z,67.43
2022-08-07T02:47:45.408Z,67.23
2022-08-07T02:48:55.011Z,67.30
2022-08-07T02:49:59.788Z,67.52
2022-08-07T02:51:07.319Z,67.54
2022-08-07T02:52:40.523Z,67.54
2022-08-07T02:53:46.424Z,67.38
2022-08-07T02:54:48.036Z,67.31
2022-08-07T02:56:03.588Z,67.24
2022-08-07T02:57:06.841Z,67.32
2022-08-07T02:58:11.190Z,67.29
2022-08-07T02:59:15.018Z,67.09
2022-08-07T03:00:16.849Z,67.09
2022-08-07T03:01:35.398Z,67.23
2022-08-07T03:02:37.876Z,67.43
2022-08-07T03:03:56.495Z,67.37
2022-08-07T03:05:06.749Z,67.31
2022-08-07T03:06:16.398Z,67.33
2022-08-07T03:08:05.043Z,67.36
2022-08-07T03:08:48.699Z,67.29
2022-08-07T03:09:53.444Z,67.12
2022-08-07T03:10:55.818Z,67.16
2022-08-07T03:11:57.866Z,67.10
2022-08-07T03:13:04.432Z,67.08
2022-08-07T03:14:06.236Z,66.90
2022-08-07T03:15:08.333Z,67.05
2022-08-07T03:16:10.125Z,66.96
2022-08-07T03:17:14.094Z,66.77
2022-08-07T03:18:17.476Z,67.02
2022-08-07T03:19:21.823Z,66.95
2022-08-07T03:20:23.696Z,67.12
2022-08-07T03:21:25.448Z,67.23
2022-08-07T03:22:29.567Z,67.26
2022-08-07T03:23:34.086Z,67.42
2022-08-07T03:24:53.980Z,67.46
2022-08-07T03:25:59.774Z,67.55
2022-08-07T03:27:03.469Z,67.68
2022-08-07T03:28:09.522Z,67.75
2022-08-07T03:29:37.733Z,67.86
2022-08-07T03:30:39.844Z,67.70
2022-08-07T03:31:43.987Z,67.57
2022-08-07T03:32:49.385Z,67.49
2022-08-07T03:34:01.320Z,67.57
2022-08-07T03:35:17.795Z,67.82
2022-08-07T03:36:21.016Z,67.89
2022-08-07T03:37:28.026Z,67.83
2022-08-07T03:38:34.054Z,67.69
2022-08-07T03:39:56.594Z,67.46
2022-08-07T03:40:58.092Z,67.32
2022-08-07T03:42:00.742Z,67.22
2022-08-07T03:43:02.461Z,67.15
2022-08-07T03:44:04.667Z,66.98
2022-08-07T03:45:07.340Z,67.00
2022-08-07T03:46:10.634Z,66.86
2022-08-07T03:47:20.323Z,66.77
2022-08-07T03:48:24.527Z,66.55
2022-08-07T03:49:27.969Z,66.51
2022-08-07T03:50:29.816Z,66.61
2022-08-07T03:51:47.117Z,66.56
2022-08-07T03:52:49.720Z,66.47
2022-08-07T03:54:33.448Z,66.45
2022-08-07T03:55:13.063Z,66.47
2022-08-07T03:56:33.411Z,66.23
2022-08-07T03:58:08.804Z,66.27
2022-08-07T03:59:09.478Z,66.36
2022-08-07T04:00:14.833Z,66.52
2022-08-07T04:01:17.441Z,66.76
2022-08-07T04:02:19.092Z,66.74
2022-08-07T04:03:21.342Z,66.70
2022-08-07T04:04:23.040Z,66.89
2022-08-07T04:05:28.794Z,67.14
2022-08-07T04:06:43.666Z,67.52
2022-08-07T04:07:46.813Z,67.54
2022-08-07T04:08:50.082Z,67.68
2022-08-07T04:09:52.004Z,67.83
2022-08-07T04:12:20.765Z,68.01
2022-08-07T04:12:23.990Z,68.23
2022-08-07T04:13:30.272Z,68.20
2022-08-07T04:14:51.895Z,68.04
2022-08-07T04:15:54.777Z,68.13
2022-08-07T04:16:58.530Z,68.25
2022-08-07T04:18:30.756Z,68.20
2022-08-07T04:19:51.290Z,68.31
2022-08-07T04:20:54.356Z,68.26
2022-08-07T04:21:59.285Z,68.22
2022-08-07T04:23:07.186Z,68.11
2022-08-07T04:24:30.761Z,68.24
2022-08-07T04:25:39.296Z,68.26
2022-08-07T04:26:43.707Z,68.35
2022-08-07T04:27:53.792Z,68.35
2022-08-07T04:29:02.986Z,68.28
2022-08-07T04:30:13.412Z,68.27
2022-08-07T04:31:38.713Z,68.27
2022-08-07T04:32:48.885Z,68.45
2022-08-07T04:34:00.146Z,68.88
2022-08-07T04:35:06.284Z,69.05
2022-08-07T04:36:09.121Z,69.18
2022-08-07T04:37:20.236Z,69.31
2022-08-07T04:38:22.500Z,69.31
2022-08-07T04:39:26.249Z,70.25
2022-08-07T04:40:30.142Z,70.46
2022-08-07T04:41:36.946Z,71.45
2022-08-07T04:42:38.672Z,71.95
2022-08-07T04:44:10.325Z,73.31
2022-08-07T04:45:08.903Z,73.67
2022-08-07T04:46:26.094Z,74.39
2022-08-07T04:48:29.852Z,76.44
2022-08-07T04:49:37.781Z,76.81
2022-08-07T04:50:52.905Z,76.03
2022-08-07T04:52:05.410Z,75.58
2022-08-07T04:53:40.083Z,75.49
2022-08-07T04:54:38.873Z,74.47
2022-08-07T04:58:10.151Z,76.09
2022-08-07T04:58:13.157Z,73.95
2022-08-07T04:59:17.173Z,77.10
2022-08-07T05:00:56.072Z,74.88
2022-08-07T05:02:00.811Z,75.57
2022-08-07T05:03:17.203Z,75.22
2022-08-07T05:04:50.015Z,75.15
2022-08-07T05:05:59.039Z,76.33
2022-08-07T05:07:27.587Z,73.71
2022-08-07T05:09:00.777Z,75.14
2022-08-07T05:10:28.765Z,74.57
2022-08-07T05:11:57.455Z,72.69
2022-08-07T05:14:44.541Z,73.47
2022-08-07T05:14:52.167Z,72.96
2022-08-07T05:15:57.883Z,72.94
2022-08-07T05:17:00.851Z,73.10
2022-08-07T05:18:10.412Z,72.56
2022-08-07T05:19:13.441Z,70.79
2022-08-07T05:20:17.102Z,71.66
2022-08-07T05:21:59.797Z,71.57
2022-08-07T05:22:41.706Z,72.11
2022-08-07T05:23:48.668Z,72.65
2022-08-07T05:24:51.397Z,72.54
2022-08-07T05:26:11.040Z,73.09
2022-08-07T05:28:02.143Z,71.86
2022-08-07T05:28:37.035Z,71.76
2022-08-07T05:29:51.253Z,71.28
2022-08-07T05:30:55.552Z,70.69
2022-08-07T05:31:59.911Z,69.27
2022-08-07T05:33:02.388Z,71.09
2022-08-07T05:34:11.062Z,71.16
2022-08-07T05:35:13.614Z,70.18
2022-08-07T05:36:22.369Z,70.04
2022-08-07T05:37:26.001Z,69.87
2022-08-07T05:39:00.168Z,70.57
2022-08-07T05:40:17.228Z,68.89
2022-08-07T05:41:14.126Z,71.17
2022-08-07T05:42:33.206Z,69.24
2022-08-07T05:44:01.179Z,70.22
2022-08-07T05:45:14.192Z,69.90
2022-08-07T05:46:19.907Z,69.19
2022-08-07T05:47:38.588Z,69.67
2022-08-07T05:48:58.644Z,69.76
2022-08-07T05:50:01.280Z,69.59
2022-08-07T05:51:03.435Z,70.31
2022-08-07T05:52:05.440Z,69.57
2022-08-07T05:53:07.128Z,69.03
2022-08-07T05:54:44.020Z,69.46
2022-08-07T05:56:03.851Z,69.58
2022-08-07T05:57:07.724Z,67.93
2022-08-07T05:58:10.245Z,69.61
2022-08-07T05:59:17.020Z,67.89
2022-08-07T06:00:18.858Z,68.21
2022-08-07T06:01:22.114Z,67.79
2022-08-07T06:02:28.922Z,68.13
2022-08-07T06:03:53.862Z,68.63
2022-08-07T06:04:55.208Z,68.07
2022-08-07T06:05:57.256Z,68.83
2022-08-07T06:07:04.528Z,68.47
2022-08-07T06:08:14.802Z,68.46
2022-08-07T06:09:44.821Z,68.97
2022-08-07T06:10:51.343Z,68.72
2022-08-07T06:11:56.435Z,69.84
2022-08-07T06:12:58.062Z,69.66
2022-08-07T06:14:13.094Z,68.17
2022-08-07T06:15:21.757Z,68.19
2022-08-07T06:16:40.507Z,68.03
2022-08-07T06:17:53.647Z,68.07
2022-08-07T06:18:56.833Z,68.12
2022-08-07T06:20:04.030Z,67.77
2022-08-07T06:22:14.680Z,67.24
2022-08-07T06:22:27.977Z,67.65
2022-08-07T06:24:38.241Z,68.88
2022-08-07T06:25:00.987Z,70.20
2022-08-07T06:26:03.146Z,69.99
2022-08-07T06:27:05.007Z,70.21
2022-08-07T06:28:08.849Z,70.77
2022-08-07T06:29:10.538Z,72.58
2022-08-07T06:30:32.478Z,71.69
2022-08-07T06:31:47.306Z,72.69
2022-08-07T06:32:52.200Z,72.07
2022-08-07T06:33:54.723Z,74.01
2022-08-07T06:34:56.367Z,72.71
2022-08-07T06:36:12.019Z,73.46
2022-08-07T06:37:17.282Z,73.42
2022-08-07T06:38:22.079Z,73.12
2022-08-07T06:40:18.023Z,73.39
2022-08-07T06:40:52.850Z,74.41
2022-08-07T06:42:03.295Z,74.03
2022-08-07T06:43:05.382Z,73.01
2022-08-07T06:44:22.811Z,73.24
2022-08-07T06:45:26.036Z,72.43
2022-08-07T06:46:31.471Z,73.88
2022-08-07T06:47:48.051Z,73.27
2022-08-07T06:48:58.694Z,72.10
2022-08-07T06:50:00.615Z,72.41
2022-08-07T06:51:08.261Z,71.57
2022-08-07T06:52:11.802Z,72.47
2022-08-07T06:53:49.214Z,71.82
2022-08-07T06:55:31.569Z,72.14
2022-08-07T06:56:00.942Z,70.26
2022-08-07T06:57:03.824Z,70.84
2022-08-07T06:58:10.345Z,71.03
2022-08-07T07:00:12.287Z,70.80
2022-08-07T07:00:42.327Z,71.30
2022-08-07T07:01:50.830Z,70.05
2022-08-07T07:02:57.715Z,70.74
2022-08-07T07:04:28.427Z,69.83
2022-08-07T07:06:03.226Z,68.83
2022-08-07T07:07:00.699Z,68.61
2022-08-07T07:08:06.687Z,69.10
2022-08-07T07:09:18.163Z,68.09
2022-08-07T07:10:35.762Z,67.56
2022-08-07T07:12:08.621Z,66.75
2022-08-07T07:13:04.606Z,66.43
2022-08-07T07:14:08.534Z,66.57
2022-08-07T07:15:26.507Z,66.53
2022-08-07T07:16:45.129Z,67.64
2022-08-07T07:18:05.528Z,65.12
2022-08-07T07:19:41.042Z,64.79
2022-08-07T07:20:42.295Z,65.41
2022-08-07T07:22:04.908Z,64.48
2022-08-07T07:24:10.324Z,65.21
2022-08-07T07:24:28.110Z,62.76
2022-08-07T07:26:34.981Z,62.78
2022-08-07T07:26:52.573Z,63.90
2022-08-07T07:28:29.788Z,62.92
2022-08-07T07:29:56.608Z,63.72
2022-08-07T07:31:08.226Z,61.87
2022-08-07T07:32:12.373Z,61.40
2022-08-07T07:33:15.818Z,62.35
2022-08-07T07:34:19.916Z,61.88
2022-08-07T07:35:22.532Z,62.62
2022-08-07T07:36:32.165Z,61.16
2022-08-07T07:37:49.542Z,60.90
2022-08-07T07:38:56.037Z,61.09
2022-08-07T07:39:59.101Z,60.64
2022-08-07T07:41:03.347Z,60.02
2022-08-07T07:42:13.067Z,60.08
2022-08-07T07:43:18.808Z,60.93
2022-08-07T07:44:29.234Z,60.09
2022-08-07T07:46:53.642Z,60.48
2022-08-07T07:46:55.224Z,59.89
2022-08-07T07:48:00.708Z,58.48
2022-08-07T07:49:09.139Z,58.29
2022-08-07T07:50:35.337Z,59.11
2022-08-07T07:51:58.580Z,58.33
2022-08-07T07:53:01.264Z,58.62
2022-08-07T07:54:03.316Z,59.52
2022-08-07T07:55:05.533Z,59.86
2022-08-07T07:56:07.404Z,57.51
2022-08-07T07:57:10.436Z,57.49
2022-08-07T07:58:13.558Z,57.56
2022-08-07T07:59:15.194Z,56.87
2022-08-07T08:00:21.017Z,57.16
2022-08-07T08:02:02.171Z,57.89
2022-08-07T08:03:04.781Z,56.38
2022-08-07T08:04:11.510Z,55.54
2022-08-07T08:05:15.041Z,55.66
2022-08-07T08:06:16.876Z,54.87
2022-08-07T08:07:20.173Z,55.58
2022-08-07T08:08:35.555Z,55.49
2022-08-07T08:09:51.656Z,55.59
2022-08-07T08:11:00.646Z,54.61
2022-08-07T08:12:06.020Z,55.26
2022-08-07T08:13:10.471Z,55.39
2022-08-07T08:14:19.238Z,54.29
2022-08-07T08:15:27.635Z,53.47
2022-08-07T08:16:50.301Z,53.35
2022-08-07T08:18:18.066Z,53.60
2022-08-07T08:19:18.064Z,53.56
2022-08-07T08:20:38.372Z,52.74
2022-08-07T08:22:03.651Z,52.43
2022-08-07T08:23:27.879Z,52.16
2022-08-07T08:24:51.262Z,52.14
2022-08-07T08:26:18.651Z,51.47
2022-08-07T08:27:23.280Z,51.02
2022-08-07T08:28:38.503Z,50.93
2022-08-07T08:29:54.423Z,50.99
2022-08-07T08:30:59.083Z,51.04
2022-08-07T08:32:17.911Z,51.52
2022-08-07T08:33:22.001Z,51.89
2022-08-07T08:34:26.681Z,52.01
2022-08-07T08:35:39.086Z,51.57
2022-08-07T08:36:46.352Z,51.19
2022-08-07T08:38:01.445Z,51.39
2022-08-07T08:39:05.442Z,51.42
2022-08-07T08:40:11.551Z,51.24
2022-08-07T08:42:03.709Z,51.07
2022-08-07T08:43:17.811Z,50.66
2022-08-07T08:44:29.379Z,50.68
2022-08-07T08:45:58.657Z,50.88
2022-08-07T08:47:10.013Z,51.05
2022-08-07T08:48:38.408Z,51.34
2022-08-07T08:50:05.664Z,50.68
2022-08-07T08:51:22.453Z,50.52
2022-08-07T08:52:35.878Z,50.96
2022-08-07T08:54:11.085Z,49.85
2022-08-07T08:55:54.993Z,50.07
2022-08-07T08:56:52.320Z,50.09
2022-08-07T08:58:13.322Z,50.46
2022-08-07T08:59:41.765Z,49.68
2022-08-07T09:00:48.548Z,49.32
2022-08-07T09:02:09.047Z,49.05
2022-08-07T09:03:15.303Z,49.79
2022-08-07T09:05:01.385Z,50.73
2022-08-07T09:06:11.622Z,50.22
2022-08-07T09:07:45.944Z,49.79
2022-08-07T09:09:01.780Z,49.51
2022-08-07T09:10:39.160Z,50.13
2022-08-07T09:12:30.148Z,49.80
2022-08-07T09:13:56.005Z,49.62
2022-08-07T09:16:25.528Z,49.60
2022-08-07T09:17:00.045Z,49.53
2022-08-07T09:18:38.145Z,49.27
2022-08-07T09:19:51.894Z,48.94
2022-08-07T09:21:01.721Z,48.61
2022-08-07T09:24:29.343Z,48.51
2022-08-07T09:24:31.665Z,48.45
2022-08-07T09:25:43.211Z,48.16
2022-08-07T09:27:12.076Z,48.87
2022-08-07T09:30:00.793Z,48.56
2022-08-07T09:30:04.319Z,48.95
2022-08-07T09:31:16.075Z,49.05
2022-08-07T09:32:31.967Z,48.69
2022-08-07T09:33:56.968Z,48.69
2022-08-07T09:36:05.425Z,48.39
2022-08-07T09:37:02.026Z,48.48
2022-08-07T09:38:12.095Z,48.57
2022-08-07T09:39:54.983Z,48.37
2022-08-07T09:41:05.138Z,48.21
2022-08-07T09:42:23.149Z,48.19
2022-08-07T09:44:03.611Z,48.40
2022-08-07T09:47:51.832Z,47.44
2022-08-07T09:47:51.832Z,47.54
2022-08-07T09:48:50.154Z,47.39
2022-08-07T09:50:20.961Z,47.61
2022-08-07T09:52:10.926Z,47.67
2022-08-07T09:52:51.883Z,48.05
2022-08-07T09:54:02.054Z,48.26
2022-08-07T09:55:29.240Z,47.84
2022-08-07T09:57:06.436Z,47.81
2022-08-07T09:58:32.264Z,47.59
2022-08-07T10:00:01.337Z,47.44
2022-08-07T10:01:50.484Z,47.69
2022-08-07T10:02:57.234Z,47.21
2022-08-07T10:04:06.115Z,47.29
2022-08-07T10:06:00.292Z,48.06
2022-08-07T10:07:24.202Z,48.22
2022-08-07T10:08:51.489Z,47.84
2022-08-07T10:10:21.656Z,47.76
2022-08-07T10:12:01.779Z,47.67
2022-08-07T10:13:54.697Z,47.63
2022-08-07T10:15:18.829Z,47.71
2022-08-07T10:16:59.610Z,48.46
2022-08-07T10:18:11.925Z,48.41
2022-08-07T10:19:37.579Z,47.42
2022-08-07T10:21:00.431Z,47.38
2022-08-07T10:22:36.855Z,47.42
2022-08-07T10:24:10.157Z,47.21
2022-08-07T10:25:42.731Z,46.93
2022-08-07T10:27:06.739Z,46.77
2022-08-07T10:28:26.011Z,46.64
2022-08-07T10:30:06.543Z,47.49
2022-08-07T10:31:31.384Z,46.88
2022-08-07T10:33:14.842Z,45.98
2022-08-07T10:34:27.268Z,46.16
2022-08-07T10:35:55.567Z,45.89
2022-08-07T10:37:18.797Z,46.48
2022-08-07T10:38:49.273Z,45.90
2022-08-07T10:40:09.033Z,46.19
2022-08-07T10:41:51.985Z,45.74
2022-08-07T10:43:06.503Z,45.56
2022-08-07T10:44:16.243Z,45.22
2022-08-07T10:45:44.523Z,45.20
2022-08-07T10:47:00.082Z,45.48
2022-08-07T10:48:09.697Z,45.50
2022-08-07T10:49:49.385Z,45.10
2022-08-07T10:50:55.120Z,45.23
2022-08-07T10:52:13.752Z,45.80
2022-08-07T10:53:22.617Z,45.25
2022-08-07T10:55:00.938Z,45.01
2022-08-07T10:56:31.421Z,44.68
2022-08-07T10:57:51.778Z,44.36
2022-08-07T10:59:21.480Z,43.98
2022-08-07T11:00:39.330Z,44.29
2022-08-07T11:02:12.402Z,44.37
2022-08-07T11:03:52.580Z,44.08
2022-08-07T11:05:14.037Z,43.98
2022-08-07T11:06:29.233Z,44.24
2022-08-07T11:07:59.327Z,44.28
2022-08-07T11:09:11.681Z,43.74
2022-08-07T11:11:06.226Z,43.83
2022-08-07T11:12:19.144Z,43.77
2022-08-07T11:14:43.607Z,43.60
2022-08-07T11:15:14.677Z,43.71
2022-08-07T11:16:20.889Z,43.48
2022-08-07T11:17:45.090Z,43.49
2022-08-07T11:18:53.293Z,43.54
2022-08-07T11:20:09.792Z,42.92
2022-08-07T11:21:31.932Z,43.09
2022-08-07T11:22:46.292Z,43.21
2022-08-07T11:24:14.301Z,43.71
2022-08-07T11:25:26.185Z,43.33
2022-08-07T11:26:53.882Z,43.80
2022-08-07T11:28:17.552Z,43.65
2022-08-07T11:29:41.820Z,43.33
2022-08-07T11:31:08.801Z,43.55
2022-08-07T11:32:31.146Z,43.61
2022-08-07T11:33:59.853Z,43.59
2022-08-07T11:35:25.181Z,43.74
2022-08-07T11:36:53.228Z,44.20
2022-08-07T11:38:12.614Z,43.18
2022-08-07T11:40:03.429Z,43.11
2022-08-07T11:41:22.390Z,43.09
2022-08-07T11:43:08.260Z,43.24
2022-08-07T11:44:23.559Z,42.42
2022-08-07T11:45:50.007Z,42.87
2022-08-07T11:47:04.742Z,43.15
2022-08-07T11:48:29.550Z,42.54
2022-08-07T11:50:30.696Z,42.24
2022-08-07T11:51:58.582Z,42.67
2022-08-07T11:54:00.802Z,42.63
2022-08-07T11:56:18.475Z,42.40
2022-08-07T11:58:00.065Z,42.22
2022-08-07T11:58:51.116Z,41.45
2022-08-07T12:00:19.040Z,41.43
2022-08-07T12:01:27.752Z,41.81
2022-08-07T12:03:45.199Z,42.02
2022-08-07T12:05:02.007Z,42.14
2022-08-07T12:06:39.920Z,42.18
2022-08-07T12:08:25.879Z,41.78
2022-08-07T12:10:08.132Z,41.72
2022-08-07T12:11:21.190Z,41.84
2022-08-07T12:12:28.708Z,41.75
2022-08-07T12:13:39.207Z,41.58
2022-08-07T12:14:51.496Z,41.52
2022-08-07T12:16:06.858Z,41.54
2022-08-07T12:17:19.751Z,41.46
2022-08-07T12:18:29.768Z,41.76
2022-08-07T12:20:18.677Z,41.20
2022-08-07T12:22:37.987Z,41.24
2022-08-07T12:24:04.762Z,41.23
2022-08-07T12:26:02.977Z,41.17
2022-08-07T12:26:58.840Z,40.98
2022-08-07T12:28:05.857Z,41.70
2022-08-07T12:29:37.908Z,42.01
2022-08-07T12:30:46.710Z,41.33
2022-08-07T12:32:04.778Z,41.69
2022-08-07T12:33:23.109Z,41.79
2022-08-07T12:34:30.558Z,41.00
2022-08-07T12:35:36.271Z,40.70
2022-08-07T12:36:38.104Z,40.85
2022-08-07T12:38:10.017Z,40.91
2022-08-07T12:39:38.799Z,40.87
2022-08-07T12:40:47.596Z,40.47
2022-08-07T12:41:52.158Z,40.99
2022-08-07T12:42:57.216Z,40.89
2022-08-07T12:44:03.874Z,41.31
2022-08-07T12:45:13.732Z,40.95
2022-08-07T12:46:26.369Z,40.95
2022-08-07T12:47:37.446Z,41.11
2022-08-07T12:48:52.132Z,40.94
2022-08-07T12:50:38.294Z,41.05
2022-08-07T12:52:12.435Z,41.27
2022-08-07T12:53:17.334Z,40.99
2022-08-07T12:54:38.448Z,41.65
2022-08-07T12:56:03.670Z,41.34
2022-08-07T12:57:09.346Z,41.69
2022-08-07T12:58:14.155Z,41.86
2022-08-07T12:59:20.303Z,42.13
2022-08-07T13:00:32.525Z,42.33
2022-08-07T13:01:58.924Z,42.03
2022-08-07T13:03:23.074Z,42.32
2022-08-07T13:04:57.763Z,41.35
2022-08-07T13:06:21.571Z,41.59
2022-08-07T13:08:14.392Z,41.58
2022-08-07T13:10:21.572Z,41.14
2022-08-07T13:10:51.652Z,40.49
2022-08-07T13:12:10.104Z,40.65
2022-08-07T13:13:48.443Z,40.41
2022-08-07T13:15:09.534Z,40.22
2022-08-07T13:16:17.703Z,40.33
2022-08-07T13:17:43.718Z,40.38
2022-08-07T13:18:57.130Z,40.22
2022-08-07T13:20:00.196Z,40.53
2022-08-07T13:21:07.208Z,40.26
2022-08-07T13:22:27.869Z,40.38
2022-08-07T13:24:01.503Z,39.65
2022-08-07T13:25:15.235Z,39.20
2022-08-07T13:26:34.195Z,39.32
2022-08-07T13:28:12.707Z,39.70
2022-08-07T13:29:15.799Z,39.87
2022-08-07T13:30:18.851Z,39.49
2022-08-07T13:31:25.286Z,39.37
2022-08-07T13:32:42.278Z,39.66
2022-08-07T13:34:32.787Z,39.45
2022-08-07T13:36:00.550Z,39.60
2022-08-07T13:36:55.541Z,39.30
2022-08-07T13:38:20.306Z,39.09
2022-08-07T13:40:36.155Z,39.07
2022-08-07T13:41:27.980Z,38.96
2022-08-07T13:42:30.996Z,38.87
2022-08-07T13:43:34.248Z,39.51
2022-08-07T13:44:37.685Z,39.17
2022-08-07T13:46:20.839Z,39.00
2022-08-07T13:47:09.429Z,39.30
2022-08-07T13:48:20.590Z,38.91
2022-08-07T13:50:34.121Z,38.67
2022-08-07T13:51:01.433Z,38.11
2022-08-07T13:52:31.656Z,38.76
2022-08-07T13:53:59.651Z,38.57
2022-08-07T13:55:00.744Z,38.90
2022-08-07T13:56:02.461Z,38.35
2022-08-07T13:57:09.703Z,38.46
2022-08-07T13:58:34.714Z,38.64
2022-08-07T13:59:36.438Z,38.60
2022-08-07T14:00:53.986Z,39.01
2022-08-07T14:02:10.224Z,38.89
2022-08-07T14:03:13.831Z,38.80
2022-08-07T14:04:36.085Z,38.54
2022-08-07T14:05:38.576Z,37.93
2022-08-07T14:06:41.963Z,38.20
2022-08-07T14:08:00.722Z,38.01
2022-08-07T14:09:04.508Z,38.36
2022-08-07T14:10:21.768Z,38.50
2022-08-07T14:11:29.155Z,38.18
2022-08-07T14:12:55.703Z,37.80
2022-08-07T14:14:07.640Z,37.67
2022-08-07T14:15:11.052Z,38.00
2022-08-07T14:16:16.205Z,37.67
2022-08-07T14:18:12.887Z,37.93
2022-08-07T14:18:50.016Z,37.31
2022-08-07T14:20:43.775Z,37.75
2022-08-07T14:22:02.260Z,37.34
2022-08-07T14:23:31.365Z,37.34
2022-08-07T14:24:41.719Z,37.39
2022-08-07T14:25:45.952Z,37.70
2022-08-07T14:26:56.700Z,37.75
2022-08-07T14:28:10.895Z,38.07
2022-08-07T14:30:05.309Z,37.98
2022-08-07T14:30:46.992Z,37.53
2022-08-07T14:31:57.780Z,37.69
2022-08-07T14:33:04.451Z,37.42
2022-08-07T14:34:07.247Z,37.64
2022-08-07T14:35:45.716Z,37.44
2022-08-07T14:36:41.870Z,37.57
2022-08-07T14:37:44.514Z,37.49
2022-08-07T14:39:06.505Z,37.44
2022-08-07T14:40:15.700Z,37.59
2022-08-07T14:42:20.331Z,37.49
2022-08-07T14:43:55.966Z,37.73
2022-08-07T14:44:22.135Z,37.43
2022-08-07T14:45:49.382Z,37.54
2022-08-07T14:47:08.549Z,37.46
2022-08-07T14:48:19.725Z,37.59
2022-08-07T14:49:57.478Z,37.64
2022-08-07T14:50:48.905Z,37.56
2022-08-07T14:52:04.481Z,37.67
2022-08-07T14:53:12.027Z,37.68
2022-08-07T14:54:31.675Z,37.81
2022-08-07T14:55:55.334Z,37.30
2022-08-07T14:56:58.817Z,37.50
2022-08-07T14:58:05.017Z,37.81
2022-08-07T14:59:13.693Z,37.59
2022-08-07T15:00:33.141Z,37.75
2022-08-07T15:02:59.147Z,37.15
2022-08-07T15:04:05.694Z,37.29
2022-08-07T15:05:20.482Z,37.19
2022-08-07T15:06:25.576Z,37.44
2022-08-07T15:08:55.030Z,37.82
2022-08-07T15:10:01.443Z,38.00
2022-08-07T15:12:36.710Z,37.59
2022-08-07T15:13:06.525Z,37.58
2022-08-07T15:13:56.388Z,37.73
2022-08-07T15:15:09.311Z,37.94
2022-08-07T15:16:35.111Z,37.76
2022-08-07T15:17:55.193Z,37.62
2022-08-07T15:18:57.646Z,37.75
2022-08-07T15:21:58.804Z,37.84
2022-08-07T15:22:54.616Z,37.71
2022-08-07T15:25:14.311Z,37.91
2022-08-07T15:26:55.818Z,37.61
2022-08-07T15:30:10.103Z,37.52
2022-08-07T15:31:04.485Z,37.95
2022-08-07T15:32:07.565Z,37.62
2022-08-07T15:34:50.184Z,37.78
2022-08-07T15:36:04.794Z,37.62
2022-08-07T15:37:07.238Z,37.96
2022-08-07T15:38:17.904Z,38.11
2022-08-07T15:39:56.900Z,37.78
2022-08-07T15:41:00.387Z,37.80
2022-08-07T15:44:01.415Z,38.08
2022-08-07T15:45:04.843Z,37.87
2022-08-07T15:46:31.857Z,38.24
2022-08-07T15:48:01.050Z,38.13
2022-08-07T15:50:37.445Z,38.30
2022-08-07T15:53:02.518Z,38.21
2022-08-07T15:54:06.681Z,38.16
2022-08-07T15:55:15.517Z,37.73
2022-08-07T15:56:17.195Z,37.69
2022-08-07T15:57:39.127Z,37.94
2022-08-07T15:58:44.553Z,38.23
2022-08-07T15:59:54.118Z,38.12
2022-08-07T16:00:58.260Z,38.03
2022-08-07T16:02:01.866Z,37.91
2022-08-07T16:03:21.361Z,38.14
2022-08-07T16:04:33.680Z,38.59
2022-08-07T16:05:36.147Z,38.65
2022-08-07T16:06:51.087Z,38.36
2022-08-07T16:08:30.356Z,38.62
2022-08-07T16:09:45.133Z,38.26
2022-08-07T16:10:48.883Z,38.19
2022-08-07T16:12:28.786Z,38.33